Pagrindinis puslapis
METAR-TAF:

METAR-TAF

Oro uostai :

Puent Nuaras, Kongas

platuma: 04-49S, ilguma: 011-54E, Aukštis: 17 m

Dabartinis oras

Ataskaita buvo paskelbta 55 minutes, ne 22:00 UTC
Vėjas 2 kt iš Šiaurės
Temperatūra 24°C
Drėgmė 94%
Slėgis 1012 hPa
Matomumas: 5000 m
rūkana

METAR: FCPP 302200Z 01002KT 5000 BR NSC 24/23 Q1012 TEMPO 3500 BR

Laikas: 23:55 (22:55 UTC)

Prognozė

Ataskaita buvo paskelbta 5 valandos ir 55 minutes, ne 17:00 UTC
Prognozė galioja nuo 30 metu 18 UTC su 31 metu 18 UTC
Vėjas 3 kt iš Pietų
Matomumas: 8000 m
Mažai debesys ne aukštis 1500 ft
Su prošvaistėmis ne aukštis 3000 ft
Tikimybė 30%
nuo 31 metu 04 UTC su 31 metu 08 UTC
Matomumas: 4000 m
rūkana
Tapsmas
nuo 31 metu 09 UTC su 31 metu 11 UTC
Išsisklaidę debesys ne aukštis 2600 ft

TAF: FCPP 301700Z 3018/3118 18003KT 8000 FEW015 BKN030 PROB30 3104/3108 4000 BR BECMG 3109/3111 SCT026

Orai ataskaitas ir orų prognozės (METAR, TAF).

turimą stotys yra geltonos ir raudonos taškus žemėlapyje.

Perkelti pele per norėdami pamatyti stoties vardą.

Tada spustelėkite, norėdami matyti oro stebėjimo ir prognozės.

Norėdami pakeisti žemėlapį: spustelėkite ant žalios mygtukų su juodo kryžiaus žemyn,; žalią mygtuką su brūkšneliu, jei norite nutolinti; arba žalių rodyklių gretimoms žemėlapius.


METAR-TAF: